sensor_id;sensor_type;location;lat;lon;timestamp;temperature;humidity
67279;DHT22;54193;53.746;10.058;2022-12-17T00:03:09;-5.82;95.52
67279;DHT22;54193;53.746;10.058;2022-12-17T00:06:13;-5.81;96.26
67279;DHT22;54193;53.746;10.058;2022-12-17T00:09:17;-5.94;95.67
67279;DHT22;54193;53.746;10.058;2022-12-17T00:12:21;-6.14;95.12
67279;DHT22;54193;53.746;10.058;2022-12-17T00:15:25;-6.11;94.79
67279;DHT22;54193;53.746;10.058;2022-12-17T00:18:29;-6.13;94.80
67279;DHT22;54193;53.746;10.058;2022-12-17T00:21:33;-6.32;95.54
67279;DHT22;54193;53.746;10.058;2022-12-17T00:24:38;-6.41;96.22
67279;DHT22;54193;53.746;10.058;2022-12-17T00:27:42;-6.41;96.41
67279;DHT22;54193;53.746;10.058;2022-12-17T00:30:50;-6.57;95.46
67279;DHT22;54193;53.746;10.058;2022-12-17T00:33:55;-6.83;95.35
67279;DHT22;54193;53.746;10.058;2022-12-17T00:36:59;-6.93;94.98
67279;DHT22;54193;53.746;10.058;2022-12-17T00:40:03;-6.85;94.71
67279;DHT22;54193;53.746;10.058;2022-12-17T00:43:10;-6.73;94.48
67279;DHT22;54193;53.746;10.058;2022-12-17T00:46:15;-6.75;95.81
67279;DHT22;54193;53.746;10.058;2022-12-17T00:49:19;-6.97;95.67
67279;DHT22;54193;53.746;10.058;2022-12-17T00:52:23;-7.13;95.32
67279;DHT22;54193;53.746;10.058;2022-12-17T00:55:27;-7.07;95.39
67279;DHT22;54193;53.746;10.058;2022-12-17T00:58:31;-7.21;95.87
67279;DHT22;54193;53.746;10.058;2022-12-17T01:01:36;-7.25;95.92
67279;DHT22;54193;53.746;10.058;2022-12-17T01:04:40;-7.11;95.51
67279;DHT22;54193;53.746;10.058;2022-12-17T01:07:44;-7.17;95.57
67279;DHT22;54193;53.746;10.058;2022-12-17T01:10:48;-6.92;94.92
67279;DHT22;54193;53.746;10.058;2022-12-17T01:13:53;-6.86;94.72
67279;DHT22;54193;53.746;10.058;2022-12-17T01:16:57;-6.83;94.57
67279;DHT22;54193;53.746;10.058;2022-12-17T01:20:01;-6.82;94.39
67279;DHT22;54193;53.746;10.058;2022-12-17T01:23:19;-7.08;94.60
67279;DHT22;54193;53.746;10.058;2022-12-17T01:26:23;-6.85;94.33
67279;DHT22;54193;53.746;10.058;2022-12-17T01:29:27;-6.87;94.26
67279;DHT22;54193;53.746;10.058;2022-12-17T01:32:32;-6.92;94.36
67279;DHT22;54193;53.746;10.058;2022-12-17T01:35:36;-7.14;94.77
67279;DHT22;54193;53.746;10.058;2022-12-17T01:38:40;-6.95;94.59
67279;DHT22;54193;53.746;10.058;2022-12-17T01:41:44;-6.82;94.32
67279;DHT22;54193;53.746;10.058;2022-12-17T01:44:52;-6.65;94.44
67279;DHT22;54193;53.746;10.058;2022-12-17T01:47:58;-6.72;94.41
67279;DHT22;54193;53.746;10.058;2022-12-17T01:51:03;-6.76;94.23
67279;DHT22;54193;53.746;10.058;2022-12-17T01:54:07;-7.08;94.54
67279;DHT22;54193;53.746;10.058;2022-12-17T01:57:12;-6.99;94.33
67279;DHT22;54193;53.746;10.058;2022-12-17T02:00:18;-6.96;94.23
67279;DHT22;54193;53.746;10.058;2022-12-17T02:03:22;-7.00;94.26
67279;DHT22;54193;53.746;10.058;2022-12-17T02:06:30;-6.95;94.24
67279;DHT22;54193;53.746;10.058;2022-12-17T02:09:46;-6.86;94.46
67279;DHT22;54193;53.746;10.058;2022-12-17T02:13:00;-6.79;94.45
67279;DHT22;54193;53.746;10.058;2022-12-17T02:16:11;-6.79;94.39
67279;DHT22;54193;53.746;10.058;2022-12-17T02:19:26;-6.85;94.39
67279;DHT22;54193;53.746;10.058;2022-12-17T02:23:08;-6.89;94.29
67279;DHT22;54193;53.746;10.058;2022-12-17T02:26:26;-7.00;94.10
67279;DHT22;54193;53.746;10.058;2022-12-17T02:29:58;-7.16;94.38
67279;DHT22;54193;53.746;10.058;2022-12-17T02:33:04;-7.10;95.27
67279;DHT22;54193;53.746;10.058;2022-12-17T02:36:09;-7.17;94.34
67279;DHT22;54193;53.746;10.058;2022-12-17T02:39:13;-7.27;94.02
67279;DHT22;54193;53.746;10.058;2022-12-17T02:42:17;-7.18;94.11
67279;DHT22;54193;53.746;10.058;2022-12-17T02:45:22;-7.21;94.09
67279;DHT22;54193;53.746;10.058;2022-12-17T02:48:28;-7.41;94.75
67279;DHT22;54193;53.746;10.058;2022-12-17T02:51:32;-7.46;94.12
67279;DHT22;54193;53.746;10.058;2022-12-17T02:54:37;-7.54;94.09
67279;DHT22;54193;53.746;10.058;2022-12-17T02:57:41;-7.58;94.17
67279;DHT22;54193;53.746;10.058;2022-12-17T03:00:45;-7.69;94.11
67279;DHT22;54193;53.746;10.058;2022-12-17T03:03:49;-7.90;94.12
67279;DHT22;54193;53.746;10.058;2022-12-17T03:06:53;-8.01;95.20
67279;DHT22;54193;53.746;10.058;2022-12-17T03:09:57;-8.10;95.23
67279;DHT22;54193;53.746;10.058;2022-12-17T03:13:02;-8.31;94.58
67279;DHT22;54193;53.746;10.058;2022-12-17T03:16:11;-8.44;94.57
67279;DHT22;54193;53.746;10.058;2022-12-17T03:19:15;-8.55;94.38
67279;DHT22;54193;53.746;10.058;2022-12-17T03:22:23;-8.87;94.72
67279;DHT22;54193;53.746;10.058;2022-12-17T03:25:27;-8.73;94.03
67279;DHT22;54193;53.746;10.058;2022-12-17T03:28:31;-8.58;93.82
67279;DHT22;54193;53.746;10.058;2022-12-17T03:31:36;-8.59;94.14
67279;DHT22;54193;53.746;10.058;2022-12-17T03:34:41;-8.52;93.69
67279;DHT22;54193;53.746;10.058;2022-12-17T03:37:45;-8.62;93.91
67279;DHT22;54193;53.746;10.058;2022-12-17T03:40:49;-8.55;93.54
67279;DHT22;54193;53.746;10.058;2022-12-17T03:43:53;-8.77;94.02
67279;DHT22;54193;53.746;10.058;2022-12-17T03:46:57;-8.58;93.79
67279;DHT22;54193;53.746;10.058;2022-12-17T03:50:03;-8.38;93.53
67279;DHT22;54193;53.746;10.058;2022-12-17T03:53:07;-8.13;93.87
67279;DHT22;54193;53.746;10.058;2022-12-17T03:56:11;-7.94;94.01
67279;DHT22;54193;53.746;10.058;2022-12-17T03:59:15;-7.97;93.90
67279;DHT22;54193;53.746;10.058;2022-12-17T04:02:19;-8.04;93.74
67279;DHT22;54193;53.746;10.058;2022-12-17T04:05:23;-8.06;93.62
67279;DHT22;54193;53.746;10.058;2022-12-17T04:08:28;-8.16;93.58
67279;DHT22;54193;53.746;10.058;2022-12-17T04:11:32;-8.11;93.57
67279;DHT22;54193;53.746;10.058;2022-12-17T04:14:36;-8.42;93.81
67279;DHT22;54193;53.746;10.058;2022-12-17T04:17:41;-8.25;93.67
67279;DHT22;54193;53.746;10.058;2022-12-17T04:20:45;-8.32;93.83
67279;DHT22;54193;53.746;10.058;2022-12-17T04:23:49;-8.27;94.14
67279;DHT22;54193;53.746;10.058;2022-12-17T04:26:53;-8.22;93.66
67279;DHT22;54193;53.746;10.058;2022-12-17T04:29:57;-8.45;93.85
67279;DHT22;54193;53.746;10.058;2022-12-17T04:33:02;-8.42;93.79
67279;DHT22;54193;53.746;10.058;2022-12-17T04:36:06;-8.41;93.55
67279;DHT22;54193;53.746;10.058;2022-12-17T04:39:10;-8.41;93.66
67279;DHT22;54193;53.746;10.058;2022-12-17T04:42:14;-8.32;93.59
67279;DHT22;54193;53.746;10.058;2022-12-17T04:45:18;-8.41;93.70
67279;DHT22;54193;53.746;10.058;2022-12-17T04:48:22;-8.58;94.40
67279;DHT22;54193;53.746;10.058;2022-12-17T04:51:27;-8.52;94.90
67279;DHT22;54193;53.746;10.058;2022-12-17T04:54:31;-8.68;94.43
67279;DHT22;54193;53.746;10.058;2022-12-17T04:57:35;-8.70;94.48
67279;DHT22;54193;53.746;10.058;2022-12-17T05:00:39;-8.68;95.09
67279;DHT22;54193;53.746;10.058;2022-12-17T05:03:43;-8.73;94.88
67279;DHT22;54193;53.746;10.058;2022-12-17T05:06:47;-8.83;95.35
67279;DHT22;54193;53.746;10.058;2022-12-17T05:09:51;-8.73;94.54
67279;DHT22;54193;53.746;10.058;2022-12-17T05:12:57;-8.72;94.43
67279;DHT22;54193;53.746;10.058;2022-12-17T05:16:02;-8.66;94.04
67279;DHT22;54193;53.746;10.058;2022-12-17T05:19:06;-8.66;93.76
67279;DHT22;54193;53.746;10.058;2022-12-17T05:22:10;-8.48;93.64
67279;DHT22;54193;53.746;10.058;2022-12-17T05:25:14;-8.35;93.56
67279;DHT22;54193;53.746;10.058;2022-12-17T05:28:19;-8.41;93.51
67279;DHT22;54193;53.746;10.058;2022-12-17T05:31:23;-8.53;93.50
67279;DHT22;54193;53.746;10.058;2022-12-17T05:34:27;-8.48;93.47
67279;DHT22;54193;53.746;10.058;2022-12-17T05:37:31;-8.50;93.46
67279;DHT22;54193;53.746;10.058;2022-12-17T05:40:35;-8.37;93.53
67279;DHT22;54193;53.746;10.058;2022-12-17T05:43:39;-8.30;93.41
67279;DHT22;54193;53.746;10.058;2022-12-17T05:46:44;-8.35;93.37
67279;DHT22;54193;53.746;10.058;2022-12-17T05:49:48;-8.34;93.25
67279;DHT22;54193;53.746;10.058;2022-12-17T05:52:52;-8.38;93.36
67279;DHT22;54193;53.746;10.058;2022-12-17T05:55:58;-8.35;93.56
67279;DHT22;54193;53.746;10.058;2022-12-17T05:59:02;-8.28;93.68
67279;DHT22;54193;53.746;10.058;2022-12-17T06:02:06;-8.31;93.61
67279;DHT22;54193;53.746;10.058;2022-12-17T06:05:11;-8.25;93.56
67279;DHT22;54193;53.746;10.058;2022-12-17T06:08:15;-8.22;93.58
67279;DHT22;54193;53.746;10.058;2022-12-17T06:11:19;-8.17;93.69
67279;DHT22;54193;53.746;10.058;2022-12-17T06:14:24;-8.18;93.65
67279;DHT22;54193;53.746;10.058;2022-12-17T06:17:28;-8.27;93.74
67279;DHT22;54193;53.746;10.058;2022-12-17T06:20:32;-8.30;93.78
67279;DHT22;54193;53.746;10.058;2022-12-17T06:23:36;-8.39;93.97
67279;DHT22;54193;53.746;10.058;2022-12-17T06:26:40;-8.65;93.98
67279;DHT22;54193;53.746;10.058;2022-12-17T06:29:44;-8.69;94.37
67279;DHT22;54193;53.746;10.058;2022-12-17T06:32:49;-8.69;93.69
67279;DHT22;54193;53.746;10.058;2022-12-17T06:35:54;-8.73;93.66
67279;DHT22;54193;53.746;10.058;2022-12-17T06:38:59;-8.60;93.57
67279;DHT22;54193;53.746;10.058;2022-12-17T06:42:02;-8.49;93.53
67279;DHT22;54193;53.746;10.058;2022-12-17T06:45:07;-8.31;93.62
67279;DHT22;54193;53.746;10.058;2022-12-17T06:48:12;-8.30;93.51
67279;DHT22;54193;53.746;10.058;2022-12-17T06:51:16;-8.52;93.59
67279;DHT22;54193;53.746;10.058;2022-12-17T06:54:20;-8.38;95.12
67279;DHT22;54193;53.746;10.058;2022-12-17T06:57:24;-8.65;94.90
67279;DHT22;54193;53.746;10.058;2022-12-17T07:00:29;-8.79;94.67
67279;DHT22;54193;53.746;10.058;2022-12-17T07:03:33;-8.96;94.68
67279;DHT22;54193;53.746;10.058;2022-12-17T07:06:37;-8.95;94.33
67279;DHT22;54193;53.746;10.058;2022-12-17T07:09:41;-8.85;93.56
67279;DHT22;54193;53.746;10.058;2022-12-17T07:12:45;-8.62;93.49
67279;DHT22;54193;53.746;10.058;2022-12-17T07:15:50;-8.44;93.56
67279;DHT22;54193;53.746;10.058;2022-12-17T07:18:54;-8.38;93.57
67279;DHT22;54193;53.746;10.058;2022-12-17T07:21:59;-8.39;93.49
67279;DHT22;54193;53.746;10.058;2022-12-17T07:25:03;-8.32;93.52
67279;DHT22;54193;53.746;10.058;2022-12-17T07:28:07;-8.42;93.52
67279;DHT22;54193;53.746;10.058;2022-12-17T07:31:11;-8.46;94.36
67279;DHT22;54193;53.746;10.058;2022-12-17T07:34:15;-8.70;94.77
67279;DHT22;54193;53.746;10.058;2022-12-17T07:37:19;-8.92;94.34
67279;DHT22;54193;53.746;10.058;2022-12-17T07:40:23;-8.92;94.04
67279;DHT22;54193;53.746;10.058;2022-12-17T07:43:28;-8.77;93.66
67279;DHT22;54193;53.746;10.058;2022-12-17T07:46:32;-8.76;93.64
67279;DHT22;54193;53.746;10.058;2022-12-17T07:49:36;-8.92;93.80
67279;DHT22;54193;53.746;10.058;2022-12-17T07:52:40;-9.11;94.04
67279;DHT22;54193;53.746;10.058;2022-12-17T07:55:44;-9.10;93.92
67279;DHT22;54193;53.746;10.058;2022-12-17T07:58:49;-9.10;94.63
67279;DHT22;54193;53.746;10.058;2022-12-17T08:01:53;-9.11;94.55
67279;DHT22;54193;53.746;10.058;2022-12-17T08:04:57;-9.00;94.55
67279;DHT22;54193;53.746;10.058;2022-12-17T08:08:09;-8.85;93.85
67279;DHT22;54193;53.746;10.058;2022-12-17T08:11:13;-8.76;93.78
67279;DHT22;54193;53.746;10.058;2022-12-17T08:14:18;-8.49;93.53
67279;DHT22;54193;53.746;10.058;2022-12-17T08:17:22;-8.41;93.58
67279;DHT22;54193;53.746;10.058;2022-12-17T08:20:26;-8.41;93.97
67279;DHT22;54193;53.746;10.058;2022-12-17T08:23:30;-8.48;93.56
67279;DHT22;54193;53.746;10.058;2022-12-17T08:26:34;-8.32;94.39
67279;DHT22;54193;53.746;10.058;2022-12-17T08:29:38;-8.52;94.20
67279;DHT22;54193;53.746;10.058;2022-12-17T08:32:42;-8.41;94.45
67279;DHT22;54193;53.746;10.058;2022-12-17T08:35:54;-8.48;94.28
67279;DHT22;54193;53.746;10.058;2022-12-17T08:38:58;-8.45;94.65
67279;DHT22;54193;53.746;10.058;2022-12-17T08:42:04;-8.42;94.52
67279;DHT22;54193;53.746;10.058;2022-12-17T08:45:13;-8.10;94.49
67279;DHT22;54193;53.746;10.058;2022-12-17T08:48:17;-7.66;93.92
67279;DHT22;54193;53.746;10.058;2022-12-17T08:51:22;-7.34;93.58
67279;DHT22;54193;53.746;10.058;2022-12-17T08:54:27;-6.90;93.67
67279;DHT22;54193;53.746;10.058;2022-12-17T08:57:31;-6.40;93.79
67279;DHT22;54193;53.746;10.058;2022-12-17T09:00:35;-5.87;93.64
67279;DHT22;54193;53.746;10.058;2022-12-17T09:03:39;-5.21;93.25
67279;DHT22;54193;53.746;10.058;2022-12-17T09:06:43;-4.28;92.90
67279;DHT22;54193;53.746;10.058;2022-12-17T09:09:47;-3.61;91.65
67279;DHT22;54193;53.746;10.058;2022-12-17T09:12:51;-2.55;90.76
67279;DHT22;54193;53.746;10.058;2022-12-17T09:15:56;-1.62;89.20
67279;DHT22;54193;53.746;10.058;2022-12-17T09:19:00;-0.81;87.99
67279;DHT22;54193;53.746;10.058;2022-12-17T09:22:04;-0.07;86.72
67279;DHT22;54193;53.746;10.058;2022-12-17T09:25:09;0.42;85.56
67279;DHT22;54193;53.746;10.058;2022-12-17T09:28:13;1.04;85.36
67279;DHT22;54193;53.746;10.058;2022-12-17T09:31:17;1.30;84.24
67279;DHT22;54193;53.746;10.058;2022-12-17T09:34:21;1.79;84.14
67279;DHT22;54193;53.746;10.058;2022-12-17T09:37:25;2.10;82.23
67279;DHT22;54193;53.746;10.058;2022-12-17T09:40:30;2.24;81.00
67279;DHT22;54193;53.746;10.058;2022-12-17T09:43:44;0.53;82.20
67279;DHT22;54193;53.746;10.058;2022-12-17T09:46:58;-0.65;86.24
67279;DHT22;54193;53.746;10.058;2022-12-17T09:50:11;-1.52;88.55
67279;DHT22;54193;53.746;10.058;2022-12-17T09:53:38;-2.07;90.01
67279;DHT22;54193;53.746;10.058;2022-12-17T09:56:45;-2.27;90.82
67279;DHT22;54193;53.746;10.058;2022-12-17T09:59:50;-2.55;91.59
67279;DHT22;54193;53.746;10.058;2022-12-17T10:02:54;-2.69;92.39
67279;DHT22;54193;53.746;10.058;2022-12-17T10:06:09;-2.92;93.05
67279;DHT22;54193;53.746;10.058;2022-12-17T10:09:16;-2.83;93.44
67279;DHT22;54193;53.746;10.058;2022-12-17T10:12:21;-2.90;93.46
67279;DHT22;54193;53.746;10.058;2022-12-17T10:15:25;-2.85;93.63
67279;DHT22;54193;53.746;10.058;2022-12-17T10:18:30;-2.78;93.59
67279;DHT22;54193;53.746;10.058;2022-12-17T10:21:36;-2.79;93.98
67279;DHT22;54193;53.746;10.058;2022-12-17T10:24:44;-2.66;93.92
67279;DHT22;54193;53.746;10.058;2022-12-17T10:27:48;-2.64;93.71
67279;DHT22;54193;53.746;10.058;2022-12-17T10:30:53;-2.65;93.89
67279;DHT22;54193;53.746;10.058;2022-12-17T10:33:57;-2.60;93.89
67279;DHT22;54193;53.746;10.058;2022-12-17T10:37:01;-2.58;94.04
67279;DHT22;54193;53.746;10.058;2022-12-17T10:40:18;-2.52;94.07
67279;DHT22;54193;53.746;10.058;2022-12-17T10:43:31;-2.51;94.12
67279;DHT22;54193;53.746;10.058;2022-12-17T10:46:36;-2.45;94.25
67279;DHT22;54193;53.746;10.058;2022-12-17T10:49:40;-2.38;94.23
67279;DHT22;54193;53.746;10.058;2022-12-17T10:52:46;-2.38;94.29
67279;DHT22;54193;53.746;10.058;2022-12-17T10:55:57;-2.29;94.16
67279;DHT22;54193;53.746;10.058;2022-12-17T10:59:01;-2.22;93.96
67279;DHT22;54193;53.746;10.058;2022-12-17T11:02:16;-2.26;94.23
67279;DHT22;54193;53.746;10.058;2022-12-17T11:05:34;-2.17;93.77
67279;DHT22;54193;53.746;10.058;2022-12-17T11:08:39;-2.10;94.02
67279;DHT22;54193;53.746;10.058;2022-12-17T11:11:44;-1.96;94.05
67279;DHT22;54193;53.746;10.058;2022-12-17T11:14:51;-1.99;93.89
67279;DHT22;54193;53.746;10.058;2022-12-17T11:17:57;-1.83;93.85
67279;DHT22;54193;53.746;10.058;2022-12-17T11:21:10;-1.85;93.76
67279;DHT22;54193;53.746;10.058;2022-12-17T11:24:25;-1.76;93.08
67279;DHT22;54193;53.746;10.058;2022-12-17T11:27:42;-1.69;93.33
67279;DHT22;54193;53.746;10.058;2022-12-17T11:31:01;-1.59;92.86
67279;DHT22;54193;53.746;10.058;2022-12-17T11:37:34;-1.55;92.91
67279;DHT22;54193;53.746;10.058;2022-12-17T11:40:41;-1.48;93.07
67279;DHT22;54193;53.746;10.058;2022-12-17T11:50:47;-1.52;92.28
67279;DHT22;54193;53.746;10.058;2022-12-17T11:54:19;-1.44;91.84
67279;DHT22;54193;53.746;10.058;2022-12-17T12:08:10;-1.14;91.12
67279;DHT22;54193;53.746;10.058;2022-12-17T12:11:26;-1.04;90.01
67279;DHT22;54193;53.746;10.058;2022-12-17T12:14:41;-1.07;89.93
67279;DHT22;54193;53.746;10.058;2022-12-17T12:17:59;-1.17;89.55
67279;DHT22;54193;53.746;10.058;2022-12-17T12:24:55;-1.07;88.85
67279;DHT22;54193;53.746;10.058;2022-12-17T12:28:08;-1.02;89.43
67279;DHT22;54193;53.746;10.058;2022-12-17T12:31:18;-0.86;88.44
67279;DHT22;54193;53.746;10.058;2022-12-17T12:34:29;-0.88;87.86
67279;DHT22;54193;53.746;10.058;2022-12-17T12:37:34;-0.91;87.39
67279;DHT22;54193;53.746;10.058;2022-12-17T12:40:57;-0.96;87.63
67279;DHT22;54193;53.746;10.058;2022-12-17T12:44:15;-0.95;87.73
67279;DHT22;54193;53.746;10.058;2022-12-17T12:47:47;-0.88;87.08
67279;DHT22;54193;53.746;10.058;2022-12-17T12:51:02;-0.95;86.47
67279;DHT22;54193;53.746;10.058;2022-12-17T12:54:49;-0.97;86.87
67279;DHT22;54193;53.746;10.058;2022-12-17T12:58:05;-0.91;85.71
67279;DHT22;54193;53.746;10.058;2022-12-17T13:01:34;-0.86;85.78
67279;DHT22;54193;53.746;10.058;2022-12-17T13:04:41;-0.86;85.64
67279;DHT22;54193;53.746;10.058;2022-12-17T13:07:46;-0.96;85.34
67279;DHT22;54193;53.746;10.058;2022-12-17T13:10:32;-0.83;85.34
67279;DHT22;54193;53.746;10.058;2022-12-17T13:25:21;-0.81;84.85
67279;DHT22;54193;53.746;10.058;2022-12-17T13:28:28;-0.92;84.41
67279;DHT22;54193;53.746;10.058;2022-12-17T13:31:19;-0.88;84.48
67279;DHT22;54193;53.746;10.058;2022-12-17T13:34:32;-0.83;83.55
67279;DHT22;54193;53.746;10.058;2022-12-17T13:46:34;-1.17;85.04
67279;DHT22;54193;53.746;10.058;2022-12-17T13:49:27;-1.19;84.85
67279;DHT22;54193;53.746;10.058;2022-12-17T13:52:17;-1.19;85.05
67279;DHT22;54193;53.746;10.058;2022-12-17T13:55:16;-1.30;85.35
67279;DHT22;54193;53.746;10.058;2022-12-17T13:58:02;-1.19;84.64
67279;DHT22;54193;53.746;10.058;2022-12-17T14:00:48;-1.20;84.60
67279;DHT22;54193;53.746;10.058;2022-12-17T14:03:35;-1.23;84.66
67279;DHT22;54193;53.746;10.058;2022-12-17T14:06:23;-1.33;85.11
67279;DHT22;54193;53.746;10.058;2022-12-17T14:09:15;-1.38;85.31
67279;DHT22;54193;53.746;10.058;2022-12-17T14:12:05;-1.52;85.50
67279;DHT22;54193;53.746;10.058;2022-12-17T14:15:19;-1.51;85.82
67279;DHT22;54193;53.746;10.058;2022-12-17T14:18:11;-1.57;86.11
67279;DHT22;54193;53.746;10.058;2022-12-17T14:20:59;-1.65;86.06
67279;DHT22;54193;53.746;10.058;2022-12-17T14:23:46;-1.65;86.23
67279;DHT22;54193;53.746;10.058;2022-12-17T14:26:32;-1.68;86.25
67279;DHT22;54193;53.746;10.058;2022-12-17T14:29:31;-1.69;85.97
67279;DHT22;54193;53.746;10.058;2022-12-17T14:32:29;-1.86;86.31
67279;DHT22;54193;53.746;10.058;2022-12-17T14:35:24;-1.90;86.61
67279;DHT22;54193;53.746;10.058;2022-12-17T14:38:17;-2.13;87.16
67279;DHT22;54193;53.746;10.058;2022-12-17T14:41:11;-2.23;87.67
67279;DHT22;54193;53.746;10.058;2022-12-17T14:44:19;-2.14;88.11
67279;DHT22;54193;53.746;10.058;2022-12-17T14:52:54;-2.20;88.21
67279;DHT22;54193;53.746;10.058;2022-12-17T14:55:54;-2.36;88.66
67279;DHT22;54193;53.746;10.058;2022-12-17T14:58:45;-2.36;88.87
67279;DHT22;54193;53.746;10.058;2022-12-17T15:01:30;-2.34;88.77
67279;DHT22;54193;53.746;10.058;2022-12-17T15:04:16;-2.45;88.92
67279;DHT22;54193;53.746;10.058;2022-12-17T15:07:03;-2.58;89.47
67279;DHT22;54193;53.746;10.058;2022-12-17T15:09:51;-2.52;89.37
67279;DHT22;54193;53.746;10.058;2022-12-17T15:12:41;-2.65;89.37
67279;DHT22;54193;53.746;10.058;2022-12-17T15:15:27;-2.61;89.69
67279;DHT22;54193;53.746;10.058;2022-12-17T15:18:13;-2.45;89.38
67279;DHT22;54193;53.746;10.058;2022-12-17T15:21:00;-2.44;89.20
67279;DHT22;54193;53.746;10.058;2022-12-17T15:23:46;-2.37;88.97
67279;DHT22;54193;53.746;10.058;2022-12-17T15:26:32;-2.34;88.90
67279;DHT22;54193;53.746;10.058;2022-12-17T15:29:17;-2.26;88.59
67279;DHT22;54193;53.746;10.058;2022-12-17T15:32:03;-2.31;88.67
67279;DHT22;54193;53.746;10.058;2022-12-17T15:34:49;-2.30;88.97
67279;DHT22;54193;53.746;10.058;2022-12-17T15:37:35;-2.27;88.90
67279;DHT22;54193;53.746;10.058;2022-12-17T15:40:20;-2.26;88.85
67279;DHT22;54193;53.746;10.058;2022-12-17T15:43:09;-2.27;88.67
67279;DHT22;54193;53.746;10.058;2022-12-17T15:45:59;-2.34;88.96
67279;DHT22;54193;53.746;10.058;2022-12-17T15:48:45;-2.31;88.97
67279;DHT22;54193;53.746;10.058;2022-12-17T15:51:31;-2.33;88.70
67279;DHT22;54193;53.746;10.058;2022-12-17T15:54:17;-2.41;89.21
67279;DHT22;54193;53.746;10.058;2022-12-17T15:57:02;-2.43;89.24
67279;DHT22;54193;53.746;10.058;2022-12-17T15:59:49;-2.40;89.39
67279;DHT22;54193;53.746;10.058;2022-12-17T16:02:36;-2.51;89.24
67279;DHT22;54193;53.746;10.058;2022-12-17T16:05:21;-2.54;89.62
67279;DHT22;54193;53.746;10.058;2022-12-17T16:08:07;-2.60;89.70
67279;DHT22;54193;53.746;10.058;2022-12-17T16:10:52;-2.57;89.67
67279;DHT22;54193;53.746;10.058;2022-12-17T16:13:38;-2.58;89.20
67279;DHT22;54193;53.746;10.058;2022-12-17T16:16:24;-2.61;89.29
67279;DHT22;54193;53.746;10.058;2022-12-17T16:19:10;-2.69;89.49
67279;DHT22;54193;53.746;10.058;2022-12-17T16:21:57;-2.62;89.80
67279;DHT22;54193;53.746;10.058;2022-12-17T16:24:43;-2.66;89.68
67279;DHT22;54193;53.746;10.058;2022-12-17T16:27:29;-2.61;89.95
67279;DHT22;54193;53.746;10.058;2022-12-17T16:30:14;-2.64;89.61
67279;DHT22;54193;53.746;10.058;2022-12-17T16:33:00;-2.75;89.78
67279;DHT22;54193;53.746;10.058;2022-12-17T16:35:52;-2.81;89.93
67279;DHT22;54193;53.746;10.058;2022-12-17T16:38:46;-2.90;90.16
67279;DHT22;54193;53.746;10.058;2022-12-17T16:41:32;-2.89;90.37
67279;DHT22;54193;53.746;10.058;2022-12-17T16:44:18;-2.93;90.51
67279;DHT22;54193;53.746;10.058;2022-12-17T16:47:04;-2.92;90.66
67279;DHT22;54193;53.746;10.058;2022-12-17T16:49:49;-2.97;90.96
67279;DHT22;54193;53.746;10.058;2022-12-17T16:52:35;-2.93;91.07
67279;DHT22;54193;53.746;10.058;2022-12-17T16:55:21;-3.01;90.91
67279;DHT22;54193;53.746;10.058;2022-12-17T16:58:07;-3.00;91.30
67279;DHT22;54193;53.746;10.058;2022-12-17T17:00:53;-3.03;91.36
67279;DHT22;54193;53.746;10.058;2022-12-17T17:03:40;-3.04;91.36
67279;DHT22;54193;53.746;10.058;2022-12-17T17:06:26;-3.09;91.36
67279;DHT22;54193;53.746;10.058;2022-12-17T17:09:12;-3.14;91.51
67279;DHT22;54193;53.746;10.058;2022-12-17T17:11:58;-3.09;91.57
67279;DHT22;54193;53.746;10.058;2022-12-17T17:14:43;-3.13;91.46
67279;DHT22;54193;53.746;10.058;2022-12-17T17:17:29;-3.20;91.30
67279;DHT22;54193;53.746;10.058;2022-12-17T17:20:14;-3.36;91.50
67279;DHT22;54193;53.746;10.058;2022-12-17T17:23:00;-3.48;91.79
67279;DHT22;54193;53.746;10.058;2022-12-17T17:25:47;-3.76;91.75
67279;DHT22;54193;53.746;10.058;2022-12-17T17:28:32;-3.90;91.96
67279;DHT22;54193;53.746;10.058;2022-12-17T17:31:18;-4.02;92.53
67279;DHT22;54193;53.746;10.058;2022-12-17T17:34:08;-3.87;92.89
67279;DHT22;54193;53.746;10.058;2022-12-17T17:36:54;-3.85;93.00
67279;DHT22;54193;53.746;10.058;2022-12-17T17:39:40;-3.99;92.97
67279;DHT22;54193;53.746;10.058;2022-12-17T17:42:26;-4.17;93.51
67279;DHT22;54193;53.746;10.058;2022-12-17T17:45:12;-4.45;93.39
67279;DHT22;54193;53.746;10.058;2022-12-17T17:47:57;-4.30;93.53
67279;DHT22;54193;53.746;10.058;2022-12-17T17:50:43;-4.28;93.50
67279;DHT22;54193;53.746;10.058;2022-12-17T17:53:28;-4.38;93.48
67279;DHT22;54193;53.746;10.058;2022-12-17T17:56:17;-4.55;93.73
67279;DHT22;54193;53.746;10.058;2022-12-17T17:59:12;-4.73;94.32
67279;DHT22;54193;53.746;10.058;2022-12-17T18:01:58;-4.80;94.01
67279;DHT22;54193;53.746;10.058;2022-12-17T18:04:43;-4.68;94.08
67279;DHT22;54193;53.746;10.058;2022-12-17T18:07:29;-4.75;93.96
67279;DHT22;54193;53.746;10.058;2022-12-17T18:10:15;-5.01;94.41
67279;DHT22;54193;53.746;10.058;2022-12-17T18:13:01;-5.07;94.29
67279;DHT22;54193;53.746;10.058;2022-12-17T18:16:05;-4.89;94.42
67279;DHT22;54193;53.746;10.058;2022-12-17T18:18:57;-5.11;94.85
67279;DHT22;54193;53.746;10.058;2022-12-17T18:21:43;-5.11;94.81
67279;DHT22;54193;53.746;10.058;2022-12-17T18:24:29;-5.41;94.45
67279;DHT22;54193;53.746;10.058;2022-12-17T18:27:15;-5.59;94.52
67279;DHT22;54193;53.746;10.058;2022-12-17T18:30:00;-5.52;94.48
67279;DHT22;54193;53.746;10.058;2022-12-17T18:32:49;-5.58;94.56
67279;DHT22;54193;53.746;10.058;2022-12-17T18:35:34;-5.64;94.67
67279;DHT22;54193;53.746;10.058;2022-12-17T18:38:20;-5.68;95.22
67279;DHT22;54193;53.746;10.058;2022-12-17T18:41:09;-5.75;94.71
67279;DHT22;54193;53.746;10.058;2022-12-17T18:44:15;-5.87;94.90
67279;DHT22;54193;53.746;10.058;2022-12-17T18:47:01;-5.90;95.05
67279;DHT22;54193;53.746;10.058;2022-12-17T18:49:47;-5.99;94.39
67279;DHT22;54193;53.746;10.058;2022-12-17T18:52:32;-5.99;94.33
67279;DHT22;54193;53.746;10.058;2022-12-17T18:55:18;-5.92;94.61
67279;DHT22;54193;53.746;10.058;2022-12-17T18:58:03;-5.79;94.71
67279;DHT22;54193;53.746;10.058;2022-12-17T19:00:49;-5.69;94.58
67279;DHT22;54193;53.746;10.058;2022-12-17T19:03:35;-5.65;94.59
67279;DHT22;54193;53.746;10.058;2022-12-17T19:06:22;-5.65;94.63
67279;DHT22;54193;53.746;10.058;2022-12-17T19:09:15;-5.65;94.57
67279;DHT22;54193;53.746;10.058;2022-12-17T19:12:06;-5.71;94.52
67279;DHT22;54193;53.746;10.058;2022-12-17T19:14:52;-5.73;94.61
67279;DHT22;54193;53.746;10.058;2022-12-17T19:17:38;-5.75;94.44
67279;DHT22;54193;53.746;10.058;2022-12-17T19:20:23;-6.02;94.13
67279;DHT22;54193;53.746;10.058;2022-12-17T19:23:09;-6.25;94.07
67279;DHT22;54193;53.746;10.058;2022-12-17T19:25:55;-6.32;94.00
67279;DHT22;54193;53.746;10.058;2022-12-17T19:28:43;-6.45;93.88
67279;DHT22;54193;53.746;10.058;2022-12-17T19:31:30;-6.59;93.86
67279;DHT22;54193;53.746;10.058;2022-12-17T19:34:17;-6.62;93.95
67279;DHT22;54193;53.746;10.058;2022-12-17T19:37:03;-6.67;94.01